KSLG/SLG METAR and TAF weather

Enter ICAO airport designator
Station Type Date Time Source
KSLG METAR 2021/01/27 12:56 UTC NOAA

KSLG 271256Z AUTO 33009KT 8SM -SN OVC007 M01/M01 A3018 RMK AO2 SNB37 SLP228 P0000 T10061011 FZRANO TSNO


Station Type Date Time Source
KSLG Decoded METAR 2021/01/27 12:56 UTC NOAA

Siloam Springs, Smith Field Airport, AR, United States (KSLG) 36-12N 094-29W
Jan 27, 2021 - 07:56 AM EST / 2021.01.27 1256 UTC
Wind: from the NNW (330 degrees) at 10 MPH (9 KT):0
Visibility: 8 mile(s):0
Sky conditions: overcast
Weather: light snow
Precipitation last hour: A trace
Temperature: 30.9 F (-0.6 C)
Windchill: 23 F (-5 C):1
Dew Point: 30.0 F (-1.1 C)
Relative Humidity: 96%
Pressure (altimeter): 30.18 in. Hg (1022 hPa)
ob: KSLG 271256Z AUTO 33009KT 8SM -SN OVC007 M01/M01 A3018 RMK AO2 SNB37 SLP228 P0000 T10061011 FZRANO TSNO
cycle: 13

Station Type Date Time Source
KSLG TAF UTC NOAA

Error!

Example: see airport list